sensor_id;sensor_type;location;lat;lon;timestamp;temperature;humidity
39889;DHT22;25563;50.844;4.308;2024-03-02T00:00:21;8.10;99.90
39889;DHT22;25563;50.844;4.308;2024-03-02T00:02:50;8.30;99.90
39889;DHT22;25563;50.844;4.308;2024-03-02T00:05:20;8.20;99.90
39889;DHT22;25563;50.844;4.308;2024-03-02T00:07:55;8.10;99.90
39889;DHT22;25563;50.844;4.308;2024-03-02T00:10:26;8.10;99.90
39889;DHT22;25563;50.844;4.308;2024-03-02T00:12:55;8.00;99.90
39889;DHT22;25563;50.844;4.308;2024-03-02T00:15:54;7.90;99.90
39889;DHT22;25563;50.844;4.308;2024-03-02T00:18:25;8.10;99.90
39889;DHT22;25563;50.844;4.308;2024-03-02T00:20:55;8.20;99.90
39889;DHT22;25563;50.844;4.308;2024-03-02T00:23:23;8.10;99.90
39889;DHT22;25563;50.844;4.308;2024-03-02T00:25:54;8.10;99.90
39889;DHT22;25563;50.844;4.308;2024-03-02T00:28:30;8.10;99.90
39889;DHT22;25563;50.844;4.308;2024-03-02T00:31:07;8.00;99.90
39889;DHT22;25563;50.844;4.308;2024-03-02T00:33:52;7.90;99.90
39889;DHT22;25563;50.844;4.308;2024-03-02T00:36:26;8.00;99.90
39889;DHT22;25563;50.844;4.308;2024-03-02T00:38:53;8.20;99.90
39889;DHT22;25563;50.844;4.308;2024-03-02T00:41:29;7.90;99.90
39889;DHT22;25563;50.844;4.308;2024-03-02T00:44:00;7.80;99.90
39889;DHT22;25563;50.844;4.308;2024-03-02T00:46:37;8.00;99.90
39889;DHT22;25563;50.844;4.308;2024-03-02T00:49:05;8.20;99.90
39889;DHT22;25563;50.844;4.308;2024-03-02T00:51:33;8.10;99.90
39889;DHT22;25563;50.844;4.308;2024-03-02T00:54:04;8.20;99.90
39889;DHT22;25563;50.844;4.308;2024-03-02T00:56:31;8.30;99.90
39889;DHT22;25563;50.844;4.308;2024-03-02T00:58:57;8.30;99.90
39889;DHT22;25563;50.844;4.308;2024-03-02T01:01:23;8.00;99.90
39889;DHT22;25563;50.844;4.308;2024-03-02T01:03:49;8.10;99.90
39889;DHT22;25563;50.844;4.308;2024-03-02T01:06:16;8.10;99.90
39889;DHT22;25563;50.844;4.308;2024-03-02T01:08:42;8.20;99.90
39889;DHT22;25563;50.844;4.308;2024-03-02T01:11:08;8.10;99.90
39889;DHT22;25563;50.844;4.308;2024-03-02T01:13:34;8.30;99.90
39889;DHT22;25563;50.844;4.308;2024-03-02T01:16:01;8.40;99.90
39889;DHT22;25563;50.844;4.308;2024-03-02T01:18:27;8.40;99.90
39889;DHT22;25563;50.844;4.308;2024-03-02T01:20:53;8.40;99.90
39889;DHT22;25563;50.844;4.308;2024-03-02T01:23:24;8.40;99.90
39889;DHT22;25563;50.844;4.308;2024-03-02T01:25:51;8.30;99.90
39889;DHT22;25563;50.844;4.308;2024-03-02T01:28:18;8.40;99.90
39889;DHT22;25563;50.844;4.308;2024-03-02T01:30:44;8.40;99.90
39889;DHT22;25563;50.844;4.308;2024-03-02T01:33:10;8.50;99.90
39889;DHT22;25563;50.844;4.308;2024-03-02T01:35:36;8.40;99.90
39889;DHT22;25563;50.844;4.308;2024-03-02T01:38:03;8.40;99.90
39889;DHT22;25563;50.844;4.308;2024-03-02T01:40:29;8.60;99.90
39889;DHT22;25563;50.844;4.308;2024-03-02T01:42:55;8.60;99.90
39889;DHT22;25563;50.844;4.308;2024-03-02T01:45:23;8.50;99.90
39889;DHT22;25563;50.844;4.308;2024-03-02T01:47:49;8.70;99.90
39889;DHT22;25563;50.844;4.308;2024-03-02T01:50:28;8.90;99.90
39889;DHT22;25563;50.844;4.308;2024-03-02T01:52:55;8.90;99.90
39889;DHT22;25563;50.844;4.308;2024-03-02T01:55:21;8.80;99.90
39889;DHT22;25563;50.844;4.308;2024-03-02T01:57:47;9.00;99.90
39889;DHT22;25563;50.844;4.308;2024-03-02T02:00:14;8.90;99.90
39889;DHT22;25563;50.844;4.308;2024-03-02T02:02:40;8.90;99.90
39889;DHT22;25563;50.844;4.308;2024-03-02T02:05:07;8.90;99.90
39889;DHT22;25563;50.844;4.308;2024-03-02T02:07:32;9.20;99.90
39889;DHT22;25563;50.844;4.308;2024-03-02T02:10:00;9.10;99.90
39889;DHT22;25563;50.844;4.308;2024-03-02T02:12:26;9.10;99.90
39889;DHT22;25563;50.844;4.308;2024-03-02T02:14:52;8.90;99.90
39889;DHT22;25563;50.844;4.308;2024-03-02T02:17:18;8.70;99.90
39889;DHT22;25563;50.844;4.308;2024-03-02T02:19:44;8.90;99.90
39889;DHT22;25563;50.844;4.308;2024-03-02T02:22:11;9.10;99.90
39889;DHT22;25563;50.844;4.308;2024-03-02T02:24:42;9.10;99.90
39889;DHT22;25563;50.844;4.308;2024-03-02T02:27:08;8.90;99.90
39889;DHT22;25563;50.844;4.308;2024-03-02T02:29:35;9.00;99.90
39889;DHT22;25563;50.844;4.308;2024-03-02T02:32:03;9.20;99.90
39889;DHT22;25563;50.844;4.308;2024-03-02T02:34:29;9.00;99.90
39889;DHT22;25563;50.844;4.308;2024-03-02T02:36:55;9.10;99.90
39889;DHT22;25563;50.844;4.308;2024-03-02T02:39:21;9.10;99.90
39889;DHT22;25563;50.844;4.308;2024-03-02T02:41:50;8.90;99.90
39889;DHT22;25563;50.844;4.308;2024-03-02T02:44:16;9.00;99.90
39889;DHT22;25563;50.844;4.308;2024-03-02T02:46:41;9.00;99.90
39889;DHT22;25563;50.844;4.308;2024-03-02T02:49:07;8.90;99.90
39889;DHT22;25563;50.844;4.308;2024-03-02T02:51:33;8.60;99.90
39889;DHT22;25563;50.844;4.308;2024-03-02T02:53:59;8.70;99.90
39889;DHT22;25563;50.844;4.308;2024-03-02T02:56:24;8.90;99.90
39889;DHT22;25563;50.844;4.308;2024-03-02T02:58:50;8.70;99.90
39889;DHT22;25563;50.844;4.308;2024-03-02T03:01:16;8.80;99.90
39889;DHT22;25563;50.844;4.308;2024-03-02T03:03:44;9.00;99.90
39889;DHT22;25563;50.844;4.308;2024-03-02T03:06:10;9.00;99.90
39889;DHT22;25563;50.844;4.308;2024-03-02T03:08:36;9.10;99.90
39889;DHT22;25563;50.844;4.308;2024-03-02T03:11:02;9.20;99.90
39889;DHT22;25563;50.844;4.308;2024-03-02T03:13:28;9.10;99.90
39889;DHT22;25563;50.844;4.308;2024-03-02T03:15:53;9.00;99.90
39889;DHT22;25563;50.844;4.308;2024-03-02T03:18:19;9.10;99.90
39889;DHT22;25563;50.844;4.308;2024-03-02T03:20:45;9.00;99.90
39889;DHT22;25563;50.844;4.308;2024-03-02T03:23:11;8.80;99.90
39889;DHT22;25563;50.844;4.308;2024-03-02T03:25:41;8.80;99.90
39889;DHT22;25563;50.844;4.308;2024-03-02T03:28:07;8.60;99.90
39889;DHT22;25563;50.844;4.308;2024-03-02T03:30:38;8.50;99.90
39889;DHT22;25563;50.844;4.308;2024-03-02T03:33:05;8.70;99.90
39889;DHT22;25563;50.844;4.308;2024-03-02T03:35:33;8.70;99.90
39889;DHT22;25563;50.844;4.308;2024-03-02T03:37:59;9.00;99.90
39889;DHT22;25563;50.844;4.308;2024-03-02T03:40:25;8.80;99.90
39889;DHT22;25563;50.844;4.308;2024-03-02T03:42:52;8.70;99.90
39889;DHT22;25563;50.844;4.308;2024-03-02T03:45:17;8.60;99.90
39889;DHT22;25563;50.844;4.308;2024-03-02T03:47:43;8.50;99.90
39889;DHT22;25563;50.844;4.308;2024-03-02T03:50:09;8.60;99.90
39889;DHT22;25563;50.844;4.308;2024-03-02T03:52:35;8.80;99.90
39889;DHT22;25563;50.844;4.308;2024-03-02T03:55:01;9.10;99.90
39889;DHT22;25563;50.844;4.308;2024-03-02T03:57:28;9.10;99.90
39889;DHT22;25563;50.844;4.308;2024-03-02T03:59:54;9.20;99.90
39889;DHT22;25563;50.844;4.308;2024-03-02T04:02:20;8.90;99.90
39889;DHT22;25563;50.844;4.308;2024-03-02T04:04:45;8.90;99.90
39889;DHT22;25563;50.844;4.308;2024-03-02T04:07:11;8.80;99.90
39889;DHT22;25563;50.844;4.308;2024-03-02T04:09:37;8.70;99.90
39889;DHT22;25563;50.844;4.308;2024-03-02T04:12:03;8.80;99.90
39889;DHT22;25563;50.844;4.308;2024-03-02T04:14:29;8.80;99.90
39889;DHT22;25563;50.844;4.308;2024-03-02T04:16:55;8.60;99.90
39889;DHT22;25563;50.844;4.308;2024-03-02T04:19:21;8.80;99.90
39889;DHT22;25563;50.844;4.308;2024-03-02T04:21:46;9.00;99.90
39889;DHT22;25563;50.844;4.308;2024-03-02T04:24:13;8.80;99.90
39889;DHT22;25563;50.844;4.308;2024-03-02T04:26:39;8.70;99.90
39889;DHT22;25563;50.844;4.308;2024-03-02T04:29:05;8.80;99.90
39889;DHT22;25563;50.844;4.308;2024-03-02T04:31:30;8.70;99.90
39889;DHT22;25563;50.844;4.308;2024-03-02T04:33:56;8.90;99.90
39889;DHT22;25563;50.844;4.308;2024-03-02T04:36:22;9.20;99.90
39889;DHT22;25563;50.844;4.308;2024-03-02T04:38:48;9.20;99.90
39889;DHT22;25563;50.844;4.308;2024-03-02T04:41:14;9.30;99.90
39889;DHT22;25563;50.844;4.308;2024-03-02T04:43:39;9.10;99.90
39889;DHT22;25563;50.844;4.308;2024-03-02T04:46:08;9.30;99.90
39889;DHT22;25563;50.844;4.308;2024-03-02T04:48:34;9.30;99.90
39889;DHT22;25563;50.844;4.308;2024-03-02T04:51:00;8.90;99.90
39889;DHT22;25563;50.844;4.308;2024-03-02T04:53:26;8.90;99.90
39889;DHT22;25563;50.844;4.308;2024-03-02T04:55:51;8.80;99.90
39889;DHT22;25563;50.844;4.308;2024-03-02T04:58:49;8.70;99.90
39889;DHT22;25563;50.844;4.308;2024-03-02T05:01:16;8.80;99.90
39889;DHT22;25563;50.844;4.308;2024-03-02T05:03:43;8.60;99.90
39889;DHT22;25563;50.844;4.308;2024-03-02T05:06:09;8.20;99.90
39889;DHT22;25563;50.844;4.308;2024-03-02T05:08:35;8.30;99.90
39889;DHT22;25563;50.844;4.308;2024-03-02T05:11:00;8.10;99.90
39889;DHT22;25563;50.844;4.308;2024-03-02T05:13:46;8.10;99.90
39889;DHT22;25563;50.844;4.308;2024-03-02T05:16:12;7.80;99.90
39889;DHT22;25563;50.844;4.308;2024-03-02T05:18:38;8.10;99.90
39889;DHT22;25563;50.844;4.308;2024-03-02T05:21:04;8.30;99.90
39889;DHT22;25563;50.844;4.308;2024-03-02T05:23:31;8.30;99.90
39889;DHT22;25563;50.844;4.308;2024-03-02T05:25:57;8.00;99.90
39889;DHT22;25563;50.844;4.308;2024-03-02T05:28:22;7.90;99.90
39889;DHT22;25563;50.844;4.308;2024-03-02T05:30:48;7.60;99.90
39889;DHT22;25563;50.844;4.308;2024-03-02T05:33:15;7.70;99.90
39889;DHT22;25563;50.844;4.308;2024-03-02T05:35:40;7.60;99.90
39889;DHT22;25563;50.844;4.308;2024-03-02T05:38:06;7.90;99.90
39889;DHT22;25563;50.844;4.308;2024-03-02T05:40:32;7.80;99.90
39889;DHT22;25563;50.844;4.308;2024-03-02T05:42:58;7.60;99.90
39889;DHT22;25563;50.844;4.308;2024-03-02T05:45:24;7.40;99.90
39889;DHT22;25563;50.844;4.308;2024-03-02T05:47:49;7.50;99.90
39889;DHT22;25563;50.844;4.308;2024-03-02T05:50:15;7.40;99.90
39889;DHT22;25563;50.844;4.308;2024-03-02T05:52:41;7.50;99.90
39889;DHT22;25563;50.844;4.308;2024-03-02T05:55:07;7.70;99.90
39889;DHT22;25563;50.844;4.308;2024-03-02T05:57:33;7.70;99.90
39889;DHT22;25563;50.844;4.308;2024-03-02T06:00:15;7.60;99.90
39889;DHT22;25563;50.844;4.308;2024-03-02T06:02:42;7.70;99.90
39889;DHT22;25563;50.844;4.308;2024-03-02T06:05:08;7.80;99.90
39889;DHT22;25563;50.844;4.308;2024-03-02T06:07:34;7.90;99.90
39889;DHT22;25563;50.844;4.308;2024-03-02T06:10:00;7.70;99.90
39889;DHT22;25563;50.844;4.308;2024-03-02T06:12:26;7.30;99.90
39889;DHT22;25563;50.844;4.308;2024-03-02T06:14:51;7.50;99.90
39889;DHT22;25563;50.844;4.308;2024-03-02T06:17:17;7.50;99.90
39889;DHT22;25563;50.844;4.308;2024-03-02T06:19:44;7.30;99.90
39889;DHT22;25563;50.844;4.308;2024-03-02T06:22:10;7.50;99.90
39889;DHT22;25563;50.844;4.308;2024-03-02T06:24:36;7.60;99.90
39889;DHT22;25563;50.844;4.308;2024-03-02T06:27:03;7.70;99.90
39889;DHT22;25563;50.844;4.308;2024-03-02T06:29:29;7.40;99.90
39889;DHT22;25563;50.844;4.308;2024-03-02T06:31:57;7.30;99.90
39889;DHT22;25563;50.844;4.308;2024-03-02T06:34:23;7.40;99.90
39889;DHT22;25563;50.844;4.308;2024-03-02T06:36:49;7.50;99.90
39889;DHT22;25563;50.844;4.308;2024-03-02T06:39:15;7.40;99.90
39889;DHT22;25563;50.844;4.308;2024-03-02T06:41:40;7.50;99.90
39889;DHT22;25563;50.844;4.308;2024-03-02T06:44:08;7.30;99.90
39889;DHT22;25563;50.844;4.308;2024-03-02T06:46:34;7.50;99.90
39889;DHT22;25563;50.844;4.308;2024-03-02T06:48:59;7.40;99.90
39889;DHT22;25563;50.844;4.308;2024-03-02T06:51:27;7.50;99.90
39889;DHT22;25563;50.844;4.308;2024-03-02T06:53:53;7.60;99.90
39889;DHT22;25563;50.844;4.308;2024-03-02T06:56:19;7.70;99.90
39889;DHT22;25563;50.844;4.308;2024-03-02T06:58:44;7.60;99.90
39889;DHT22;25563;50.844;4.308;2024-03-02T07:01:11;7.50;99.90
39889;DHT22;25563;50.844;4.308;2024-03-02T07:03:37;7.50;99.90
39889;DHT22;25563;50.844;4.308;2024-03-02T07:06:05;7.50;99.90
39889;DHT22;25563;50.844;4.308;2024-03-02T07:08:30;7.60;99.90
39889;DHT22;25563;50.844;4.308;2024-03-02T07:10:56;7.60;99.90
39889;DHT22;25563;50.844;4.308;2024-03-02T07:13:22;7.60;99.90
39889;DHT22;25563;50.844;4.308;2024-03-02T07:15:48;7.60;99.90
39889;DHT22;25563;50.844;4.308;2024-03-02T07:18:30;7.50;99.90
39889;DHT22;25563;50.844;4.308;2024-03-02T07:21:07;7.80;99.90
39889;DHT22;25563;50.844;4.308;2024-03-02T07:23:33;7.80;99.90
39889;DHT22;25563;50.844;4.308;2024-03-02T07:25:59;8.00;99.90
39889;DHT22;25563;50.844;4.308;2024-03-02T07:28:27;7.60;99.90
39889;DHT22;25563;50.844;4.308;2024-03-02T07:31:04;7.90;99.90
39889;DHT22;25563;50.844;4.308;2024-03-02T07:33:30;7.90;99.90
39889;DHT22;25563;50.844;4.308;2024-03-02T07:35:57;7.90;99.90
39889;DHT22;25563;50.844;4.308;2024-03-02T07:38:24;7.70;99.90
39889;DHT22;25563;50.844;4.308;2024-03-02T07:40:50;7.90;99.90
39889;DHT22;25563;50.844;4.308;2024-03-02T07:43:17;7.90;99.90
39889;DHT22;25563;50.844;4.308;2024-03-02T07:45:43;7.70;99.90
39889;DHT22;25563;50.844;4.308;2024-03-02T07:48:09;8.00;99.90
39889;DHT22;25563;50.844;4.308;2024-03-02T07:50:34;7.90;99.90
39889;DHT22;25563;50.844;4.308;2024-03-02T07:53:01;8.00;99.90
39889;DHT22;25563;50.844;4.308;2024-03-02T07:55:27;8.00;99.90
39889;DHT22;25563;50.844;4.308;2024-03-02T07:57:53;8.10;99.90
39889;DHT22;25563;50.844;4.308;2024-03-02T08:00:20;8.20;99.90
39889;DHT22;25563;50.844;4.308;2024-03-02T08:02:47;8.20;99.90
39889;DHT22;25563;50.844;4.308;2024-03-02T08:05:13;8.10;99.90
39889;DHT22;25563;50.844;4.308;2024-03-02T08:07:39;8.30;99.90
39889;DHT22;25563;50.844;4.308;2024-03-02T08:10:05;8.30;99.90
39889;DHT22;25563;50.844;4.308;2024-03-02T08:12:31;8.30;99.90
39889;DHT22;25563;50.844;4.308;2024-03-02T08:14:57;8.40;99.90
39889;DHT22;25563;50.844;4.308;2024-03-02T08:17:22;8.50;99.90
39889;DHT22;25563;50.844;4.308;2024-03-02T08:19:48;8.40;99.90
39889;DHT22;25563;50.844;4.308;2024-03-02T08:22:16;8.20;99.90
39889;DHT22;25563;50.844;4.308;2024-03-02T08:24:43;8.20;99.90
39889;DHT22;25563;50.844;4.308;2024-03-02T08:27:09;8.40;99.90
39889;DHT22;25563;50.844;4.308;2024-03-02T08:29:36;8.70;99.90
39889;DHT22;25563;50.844;4.308;2024-03-02T08:32:02;8.80;99.90
39889;DHT22;25563;50.844;4.308;2024-03-02T08:34:28;8.80;99.90
39889;DHT22;25563;50.844;4.308;2024-03-02T08:36:54;9.10;99.90
39889;DHT22;25563;50.844;4.308;2024-03-02T08:39:20;9.10;99.90
39889;DHT22;25563;50.844;4.308;2024-03-02T08:41:46;9.20;99.90
39889;DHT22;25563;50.844;4.308;2024-03-02T08:44:13;9.00;99.90
39889;DHT22;25563;50.844;4.308;2024-03-02T08:46:39;9.20;99.90
39889;DHT22;25563;50.844;4.308;2024-03-02T08:49:06;9.50;99.90
39889;DHT22;25563;50.844;4.308;2024-03-02T08:51:32;9.60;99.90
39889;DHT22;25563;50.844;4.308;2024-03-02T08:53:58;9.50;99.90
39889;DHT22;25563;50.844;4.308;2024-03-02T08:56:25;9.70;99.90
39889;DHT22;25563;50.844;4.308;2024-03-02T08:58:51;9.90;99.90
39889;DHT22;25563;50.844;4.308;2024-03-02T09:01:18;10.00;99.90
39889;DHT22;25563;50.844;4.308;2024-03-02T09:03:45;10.10;99.90
39889;DHT22;25563;50.844;4.308;2024-03-02T09:06:12;10.00;99.90
39889;DHT22;25563;50.844;4.308;2024-03-02T09:08:38;10.20;99.90
39889;DHT22;25563;50.844;4.308;2024-03-02T09:11:07;10.40;99.90
39889;DHT22;25563;50.844;4.308;2024-03-02T09:13:33;10.50;99.90
39889;DHT22;25563;50.844;4.308;2024-03-02T09:15:59;10.40;99.90
39889;DHT22;25563;50.844;4.308;2024-03-02T09:18:25;10.30;99.90
39889;DHT22;25563;50.844;4.308;2024-03-02T09:20:51;10.60;99.90
39889;DHT22;25563;50.844;4.308;2024-03-02T09:23:16;10.60;99.90
39889;DHT22;25563;50.844;4.308;2024-03-02T09:25:43;10.60;99.90
39889;DHT22;25563;50.844;4.308;2024-03-02T09:28:08;10.70;99.90
39889;DHT22;25563;50.844;4.308;2024-03-02T09:30:34;10.80;99.90
39889;DHT22;25563;50.844;4.308;2024-03-02T09:33:00;10.90;99.90
39889;DHT22;25563;50.844;4.308;2024-03-02T09:35:25;11.10;99.90
39889;DHT22;25563;50.844;4.308;2024-03-02T09:37:51;11.20;99.90
39889;DHT22;25563;50.844;4.308;2024-03-02T09:40:17;11.40;99.70
39889;DHT22;25563;50.844;4.308;2024-03-02T09:42:48;11.50;99.50
39889;DHT22;25563;50.844;4.308;2024-03-02T09:45:23;11.80;99.20
39889;DHT22;25563;50.844;4.308;2024-03-02T09:47:50;11.90;98.90
39889;DHT22;25563;50.844;4.308;2024-03-02T09:50:15;11.80;98.80
39889;DHT22;25563;50.844;4.308;2024-03-02T09:52:49;12.00;98.80
39889;DHT22;25563;50.844;4.308;2024-03-02T09:55:16;12.10;98.60
39889;DHT22;25563;50.844;4.308;2024-03-02T09:57:43;12.30;98.40
39889;DHT22;25563;50.844;4.308;2024-03-02T10:00:09;12.30;98.30
39889;DHT22;25563;50.844;4.308;2024-03-02T10:02:42;12.40;97.80
39889;DHT22;25563;50.844;4.308;2024-03-02T10:05:12;12.60;97.60
39889;DHT22;25563;50.844;4.308;2024-03-02T10:07:38;12.60;97.70
39889;DHT22;25563;50.844;4.308;2024-03-02T10:10:22;13.00;97.00
39889;DHT22;25563;50.844;4.308;2024-03-02T10:12:47;13.20;96.40
39889;DHT22;25563;50.844;4.308;2024-03-02T10:15:24;13.40;96.20
39889;DHT22;25563;50.844;4.308;2024-03-02T10:17:50;13.50;95.70
39889;DHT22;25563;50.844;4.308;2024-03-02T10:20:26;13.50;95.60
39889;DHT22;25563;50.844;4.308;2024-03-02T10:23:15;13.70;95.50
39889;DHT22;25563;50.844;4.308;2024-03-02T10:25:42;13.90;94.90
39889;DHT22;25563;50.844;4.308;2024-03-02T10:28:09;14.00;94.70
39889;DHT22;25563;50.844;4.308;2024-03-02T10:30:35;14.20;94.70
39889;DHT22;25563;50.844;4.308;2024-03-02T10:33:02;14.30;94.30
39889;DHT22;25563;50.844;4.308;2024-03-02T10:35:28;14.30;94.00
39889;DHT22;25563;50.844;4.308;2024-03-02T10:37:54;14.40;93.90
39889;DHT22;25563;50.844;4.308;2024-03-02T10:40:23;14.60;93.90
39889;DHT22;25563;50.844;4.308;2024-03-02T10:42:50;14.70;93.20
39889;DHT22;25563;50.844;4.308;2024-03-02T10:45:20;14.80;92.90
39889;DHT22;25563;50.844;4.308;2024-03-02T10:47:47;14.90;92.80
39889;DHT22;25563;50.844;4.308;2024-03-02T10:50:13;14.90;92.40
39889;DHT22;25563;50.844;4.308;2024-03-02T10:52:39;14.90;92.40
39889;DHT22;25563;50.844;4.308;2024-03-02T10:55:10;14.80;92.00
39889;DHT22;25563;50.844;4.308;2024-03-02T10:57:54;14.70;92.50
39889;DHT22;25563;50.844;4.308;2024-03-02T11:00:24;14.70;91.90
39889;DHT22;25563;50.844;4.308;2024-03-02T11:03:04;14.70;92.00
39889;DHT22;25563;50.844;4.308;2024-03-02T11:05:38;14.40;92.10
39889;DHT22;25563;50.844;4.308;2024-03-02T11:08:10;14.50;92.00
39889;DHT22;25563;50.844;4.308;2024-03-02T11:13:13;14.20;92.00
39889;DHT22;25563;50.844;4.308;2024-03-02T11:15:44;14.20;92.20
39889;DHT22;25563;50.844;4.308;2024-03-02T11:18:10;14.30;92.10
39889;DHT22;25563;50.844;4.308;2024-03-02T11:20:40;14.30;92.40
39889;DHT22;25563;50.844;4.308;2024-03-02T11:23:09;14.50;92.10
39889;DHT22;25563;50.844;4.308;2024-03-02T11:25:36;14.60;91.80
39889;DHT22;25563;50.844;4.308;2024-03-02T11:28:03;14.70;92.00
39889;DHT22;25563;50.844;4.308;2024-03-02T11:33:02;15.20;91.50
39889;DHT22;25563;50.844;4.308;2024-03-02T11:35:35;15.30;91.30
39889;DHT22;25563;50.844;4.308;2024-03-02T11:38:01;15.30;91.40
39889;DHT22;25563;50.844;4.308;2024-03-02T11:40:29;15.40;91.50
39889;DHT22;25563;50.844;4.308;2024-03-02T11:42:56;15.50;91.10
39889;DHT22;25563;50.844;4.308;2024-03-02T11:45:25;15.50;91.30
39889;DHT22;25563;50.844;4.308;2024-03-02T11:47:54;15.60;91.40
39889;DHT22;25563;50.844;4.308;2024-03-02T11:53:08;16.00;90.80
39889;DHT22;25563;50.844;4.308;2024-03-02T11:55:36;16.40;90.20
39889;DHT22;25563;50.844;4.308;2024-03-02T11:58:03;17.80;89.40
39889;DHT22;25563;50.844;4.308;2024-03-02T12:00:30;18.50;85.90
39889;DHT22;25563;50.844;4.308;2024-03-02T12:03:07;19.50;84.10
39889;DHT22;25563;50.844;4.308;2024-03-02T12:05:34;18.70;83.70
39889;DHT22;25563;50.844;4.308;2024-03-02T12:08:05;17.90;84.50
39889;DHT22;25563;50.844;4.308;2024-03-02T12:10:33;17.30;86.10
39889;DHT22;25563;50.844;4.308;2024-03-02T12:13:00;16.60;87.40
39889;DHT22;25563;50.844;4.308;2024-03-02T12:15:27;16.30;88.20
39889;DHT22;25563;50.844;4.308;2024-03-02T12:17:58;16.10;88.90
39889;DHT22;25563;50.844;4.308;2024-03-02T12:20:26;16.20;89.00
39889;DHT22;25563;50.844;4.308;2024-03-02T12:22:58;16.30;88.30
39889;DHT22;25563;50.844;4.308;2024-03-02T12:25:25;17.00;87.70
39889;DHT22;25563;50.844;4.308;2024-03-02T12:27:53;18.40;84.90
39889;DHT22;25563;50.844;4.308;2024-03-02T12:30:20;19.00;83.20
39889;DHT22;25563;50.844;4.308;2024-03-02T12:32:46;18.90;82.80
39889;DHT22;25563;50.844;4.308;2024-03-02T12:35:13;20.10;81.00
39889;DHT22;25563;50.844;4.308;2024-03-02T12:37:45;20.40;79.50
39889;DHT22;25563;50.844;4.308;2024-03-02T12:40:12;19.50;80.00
39889;DHT22;25563;50.844;4.308;2024-03-02T12:42:39;19.40;80.70
39889;DHT22;25563;50.844;4.308;2024-03-02T12:45:09;19.30;80.30
39889;DHT22;25563;50.844;4.308;2024-03-02T12:47:35;19.00;81.20
39889;DHT22;25563;50.844;4.308;2024-03-02T12:50:02;18.50;82.40
39889;DHT22;25563;50.844;4.308;2024-03-02T12:52:28;18.00;82.80
39889;DHT22;25563;50.844;4.308;2024-03-02T12:54:54;17.60;84.00
39889;DHT22;25563;50.844;4.308;2024-03-02T12:57:27;18.00;83.90
39889;DHT22;25563;50.844;4.308;2024-03-02T13:00:05;18.50;82.30
39889;DHT22;25563;50.844;4.308;2024-03-02T13:02:40;18.70;81.20
39889;DHT22;25563;50.844;4.308;2024-03-02T13:05:07;18.50;80.60
39889;DHT22;25563;50.844;4.308;2024-03-02T13:07:40;18.20;81.00
39889;DHT22;25563;50.844;4.308;2024-03-02T13:10:10;17.60;82.20
39889;DHT22;25563;50.844;4.308;2024-03-02T13:12:37;17.20;82.80
39889;DHT22;25563;50.844;4.308;2024-03-02T13:15:04;16.90;83.50
39889;DHT22;25563;50.844;4.308;2024-03-02T13:17:30;16.60;84.10
39889;DHT22;25563;50.844;4.308;2024-03-02T13:20:03;16.40;84.50
39889;DHT22;25563;50.844;4.308;2024-03-02T13:22:36;16.30;84.60
39889;DHT22;25563;50.844;4.308;2024-03-02T13:25:02;16.10;85.20
39889;DHT22;25563;50.844;4.308;2024-03-02T13:27:31;16.00;86.00
39889;DHT22;25563;50.844;4.308;2024-03-02T13:29:57;15.80;86.40
39889;DHT22;25563;50.844;4.308;2024-03-02T13:32:24;15.90;86.40
39889;DHT22;25563;50.844;4.308;2024-03-02T13:34:51;16.00;86.40
39889;DHT22;25563;50.844;4.308;2024-03-02T13:37:17;16.10;86.40
39889;DHT22;25563;50.844;4.308;2024-03-02T13:39:43;16.00;86.20
39889;DHT22;25563;50.844;4.308;2024-03-02T13:42:12;16.10;85.90
39889;DHT22;25563;50.844;4.308;2024-03-02T13:44:41;15.90;86.90
39889;DHT22;25563;50.844;4.308;2024-03-02T13:47:09;15.90;87.00
39889;DHT22;25563;50.844;4.308;2024-03-02T13:49:36;15.80;87.40
39889;DHT22;25563;50.844;4.308;2024-03-02T13:52:05;15.90;87.40
39889;DHT22;25563;50.844;4.308;2024-03-02T13:54:56;15.80;87.40
39889;DHT22;25563;50.844;4.308;2024-03-02T13:57:23;15.80;87.70
39889;DHT22;25563;50.844;4.308;2024-03-02T13:59:49;15.60;88.20
39889;DHT22;25563;50.844;4.308;2024-03-02T14:02:15;15.30;88.90
39889;DHT22;25563;50.844;4.308;2024-03-02T14:04:41;15.10;89.70
39889;DHT22;25563;50.844;4.308;2024-03-02T14:07:07;15.10;89.70
39889;DHT22;25563;50.844;4.308;2024-03-02T14:09:32;15.00;90.20
39889;DHT22;25563;50.844;4.308;2024-03-02T14:11:58;14.90;90.30
39889;DHT22;25563;50.844;4.308;2024-03-02T14:14:26;15.10;90.40
39889;DHT22;25563;50.844;4.308;2024-03-02T14:16:53;15.10;90.50
39889;DHT22;25563;50.844;4.308;2024-03-02T14:19:19;15.10;90.70
39889;DHT22;25563;50.844;4.308;2024-03-02T14:21:47;15.00;91.40
39889;DHT22;25563;50.844;4.308;2024-03-02T14:24:13;14.90;91.90
39889;DHT22;25563;50.844;4.308;2024-03-02T14:26:39;14.80;92.40
39889;DHT22;25563;50.844;4.308;2024-03-02T14:29:05;14.50;93.20
39889;DHT22;25563;50.844;4.308;2024-03-02T14:31:31;14.60;92.70
39889;DHT22;25563;50.844;4.308;2024-03-02T14:33:57;14.60;92.90
39889;DHT22;25563;50.844;4.308;2024-03-02T14:36:23;14.70;93.00
39889;DHT22;25563;50.844;4.308;2024-03-02T14:38:49;15.00;92.80
39889;DHT22;25563;50.844;4.308;2024-03-02T14:41:15;14.90;93.10
39889;DHT22;25563;50.844;4.308;2024-03-02T14:43:41;15.00;92.60
39889;DHT22;25563;50.844;4.308;2024-03-02T14:46:07;15.00;92.50
39889;DHT22;25563;50.844;4.308;2024-03-02T14:48:36;14.90;92.60
39889;DHT22;25563;50.844;4.308;2024-03-02T14:51:02;14.70;93.00
39889;DHT22;25563;50.844;4.308;2024-03-02T14:53:28;14.70;93.00
39889;DHT22;25563;50.844;4.308;2024-03-02T14:55:54;14.60;93.30
39889;DHT22;25563;50.844;4.308;2024-03-02T14:58:20;14.50;93.10
39889;DHT22;25563;50.844;4.308;2024-03-02T15:00:45;14.50;93.10
39889;DHT22;25563;50.844;4.308;2024-03-02T15:03:12;14.50;93.10
39889;DHT22;25563;50.844;4.308;2024-03-02T15:05:38;14.30;93.70
39889;DHT22;25563;50.844;4.308;2024-03-02T15:08:06;14.50;93.30
39889;DHT22;25563;50.844;4.308;2024-03-02T15:10:32;14.50;93.30
39889;DHT22;25563;50.844;4.308;2024-03-02T15:13:00;14.50;93.30
39889;DHT22;25563;50.844;4.308;2024-03-02T15:15:26;14.40;93.50
39889;DHT22;25563;50.844;4.308;2024-03-02T15:17:52;14.50;93.30
39889;DHT22;25563;50.844;4.308;2024-03-02T15:20:18;14.30;93.70
39889;DHT22;25563;50.844;4.308;2024-03-02T15:22:46;14.60;93.40
39889;DHT22;25563;50.844;4.308;2024-03-02T15:25:12;14.70;93.40
39889;DHT22;25563;50.844;4.308;2024-03-02T15:27:38;14.50;93.60
39889;DHT22;25563;50.844;4.308;2024-03-02T15:30:05;14.50;93.70
39889;DHT22;25563;50.844;4.308;2024-03-02T15:32:32;14.50;93.90
39889;DHT22;25563;50.844;4.308;2024-03-02T15:34:59;14.30;94.20
39889;DHT22;25563;50.844;4.308;2024-03-02T15:37:25;14.50;94.10
39889;DHT22;25563;50.844;4.308;2024-03-02T15:39:51;14.30;94.50
39889;DHT22;25563;50.844;4.308;2024-03-02T15:42:16;14.10;94.90
39889;DHT22;25563;50.844;4.308;2024-03-02T15:44:44;14.20;95.00
39889;DHT22;25563;50.844;4.308;2024-03-02T15:47:11;14.50;94.40
39889;DHT22;25563;50.844;4.308;2024-03-02T15:49:37;14.60;94.30